Time;durP1;ratioP1;P1;durP2;ratioP2;P2;SDS_P1;SDS_P2;PMS_P1;PMS_P2;Temp;Humidity;BMP_temperature;BMP_pressure;BME280_temperature;BME280_humidity;BME280_pressure;Samples;Min_cycle;Max_cycle;Signal;HPM_P1;HPM_P2
2023/10/30 00:01:57;;;;;;;4.97;0.88;;;;;;;;;;5283580;28;20078;-81
2023/10/30 00:04:28;;;;;;;9.15;0.95;;;;;;;;;;5284293;28;20091;-81
2023/10/30 00:06:59;;;;;;;4.72;0.68;;;;;;;;;;5287762;28;20024;-81
2023/10/30 00:09:31;;;;;;;6.72;1.15;;;;;;;;;;5283779;28;20025;-81
2023/10/30 00:12:02;;;;;;;5.25;0.60;;;;;;;;;;5285733;28;20425;-82
2023/10/30 00:14:33;;;;;;;7.05;0.60;;;;;;;;;;5283397;28;20021;-82
2023/10/30 00:17:05;;;;;;;5.32;0.80;;;;;;;;;;5284647;28;20017;-82
2023/10/30 00:19:36;;;;;;;5.55;0.90;;;;;;;;;;5285611;28;20013;-83
2023/10/30 00:22:11;;;;;;;6.40;0.60;;;;;;;;;;5284599;28;20060;-81
2023/10/30 00:24:42;;;;;;;5.55;0.52;;;;;;;;;;5286902;28;20091;-82
2023/10/30 00:27:13;;;;;;;8.25;0.60;;;;;;;;;;5286495;28;20040;-81
2023/10/30 00:29:44;;;;;;;6.72;0.55;;;;;;;;;;5286667;28;20071;-81
2023/10/30 00:32:15;;;;;;;5.97;0.60;;;;;;;;;;5282583;28;20028;-82
2023/10/30 00:34:46;;;;;;;8.50;0.70;;;;;;;;;;5284165;28;20024;-81
2023/10/30 00:37:18;;;;;;;6.78;0.65;;;;;;;;;;5284228;28;20081;-82
2023/10/30 00:39:49;;;;;;;7.78;0.57;;;;;;;;;;5284407;28;20029;-82
2023/10/30 00:42:25;;;;;;;8.15;0.95;;;;;;;;;;5281468;28;20142;-81
2023/10/30 00:44:56;;;;;;;6.20;0.68;;;;;;;;;;5283760;28;20012;-82
2023/10/30 00:47:27;;;;;;;6.60;0.95;;;;;;;;;;5283442;28;20400;-83
2023/10/30 00:49:59;;;;;;;7.55;0.55;;;;;;;;;;5284236;28;20040;-81
2023/10/30 00:52:30;;;;;;;6.20;0.50;;;;;;;;;;5281770;28;20040;-82
2023/10/30 00:55:01;;;;;;;7.47;0.85;;;;;;;;;;5282224;28;20033;-82
2023/10/30 00:57:32;;;;;;;5.43;0.47;;;;;;;;;;5281140;28;20356;-82
2023/10/30 01:00:04;;;;;;;7.00;0.77;;;;;;;;;;5282155;28;20020;-82
2023/10/30 01:02:36;;;;;;;9.43;0.65;;;;;;;;;;5281637;28;20037;-81
2023/10/30 01:05:08;;;;;;;4.22;0.60;;;;;;;;;;5281760;28;20012;-81
2023/10/30 01:07:39;;;;;;;10.70;1.13;;;;;;;;;;5282416;28;20034;-81
2023/10/30 01:10:11;;;;;;;4.65;0.50;;;;;;;;;;5281969;28;20024;-81
2023/10/30 01:12:42;;;;;;;4.95;0.40;;;;;;;;;;5281313;28;20013;-81
2023/10/30 01:15:13;;;;;;;8.70;1.25;;;;;;;;;;5283560;28;20020;-82
2023/10/30 01:17:44;;;;;;;8.15;0.70;;;;;;;;;;5286091;28;20023;-81
2023/10/30 01:20:15;;;;;;;5.30;0.47;;;;;;;;;;5282621;28;20454;-82
2023/10/30 01:22:47;;;;;;;7.50;0.75;;;;;;;;;;5282036;28;20068;-81
2023/10/30 01:25:18;;;;;;;8.43;0.82;;;;;;;;;;5280781;28;20059;-82
2023/10/30 01:27:49;;;;;;;6.68;0.95;;;;;;;;;;5281998;28;20029;-82
2023/10/30 01:30:20;;;;;;;9.20;0.60;;;;;;;;;;5281250;28;20012;-81
2023/10/30 01:32:51;;;;;;;8.13;0.60;;;;;;;;;;5281493;28;20371;-82
2023/10/30 01:35:22;;;;;;;8.65;0.70;;;;;;;;;;5282963;28;20095;-81
2023/10/30 01:37:54;;;;;;;4.60;0.50;;;;;;;;;;5285863;28;20278;-81
2023/10/30 01:40:25;;;;;;;6.30;0.60;;;;;;;;;;5284498;28;20079;-81
2023/10/30 01:42:56;;;;;;;6.35;0.47;;;;;;;;;;5285228;28;20025;-82
2023/10/30 01:45:27;;;;;;;5.57;0.40;;;;;;;;;;5284539;28;20494;-82
2023/10/30 01:47:58;;;;;;;5.95;0.60;;;;;;;;;;5286253;28;20057;-81
2023/10/30 01:50:30;;;;;;;5.95;0.77;;;;;;;;;;5284766;28;20052;-82
2023/10/30 01:53:02;;;;;;;5.28;0.55;;;;;;;;;;5284508;28;20127;-82
2023/10/30 01:55:33;;;;;;;7.13;0.80;;;;;;;;;;5284987;28;20020;-82
2023/10/30 01:58:06;;;;;;;7.03;0.60;;;;;;;;;;5284762;28;20411;-81
2023/10/30 02:00:48;;;;;;;3.70;0.63;;;;;;;;;;5284173;28;20024;-81
2023/10/30 02:03:20;;;;;;;7.05;0.65;;;;;;;;;;5284546;28;20055;-81
2023/10/30 02:05:51;;;;;;;6.25;1.02;;;;;;;;;;5285138;28;20016;-81
2023/10/30 02:08:22;;;;;;;5.75;0.50;;;;;;;;;;5283621;28;20139;-81
2023/10/30 02:10:54;;;;;;;5.25;0.50;;;;;;;;;;5284913;28;20013;-82
2023/10/30 02:13:25;;;;;;;6.05;0.60;;;;;;;;;;5284761;28;20036;-82
2023/10/30 02:15:56;;;;;;;4.68;0.40;;;;;;;;;;5284420;28;20040;-82
2023/10/30 02:18:28;;;;;;;7.03;0.80;;;;;;;;;;5284009;28;20051;-82
2023/10/30 02:20:59;;;;;;;5.53;0.52;;;;;;;;;;5284162;28;20036;-82
2023/10/30 02:23:30;;;;;;;3.78;0.45;;;;;;;;;;5284026;28;20456;-81
2023/10/30 02:26:01;;;;;;;6.15;0.50;;;;;;;;;;5284540;28;20017;-82
2023/10/30 02:28:33;;;;;;;7.63;0.68;;;;;;;;;;5283294;28;20490;-82
2023/10/30 02:31:04;;;;;;;7.25;0.73;;;;;;;;;;5284201;28;20020;-82
2023/10/30 02:33:35;;;;;;;7.47;0.70;;;;;;;;;;5284101;28;20112;-81
2023/10/30 02:36:06;;;;;;;7.05;0.40;;;;;;;;;;5283282;28;20020;-81
2023/10/30 02:38:37;;;;;;;5.88;0.47;;;;;;;;;;5284259;28;20097;-82
2023/10/30 02:41:08;;;;;;;9.00;0.40;;;;;;;;;;5283595;28;20032;-81
2023/10/30 02:43:40;;;;;;;4.78;0.40;;;;;;;;;;5283383;28;20024;-82
2023/10/30 02:46:11;;;;;;;7.13;0.55;;;;;;;;;;5283259;28;20056;-82
2023/10/30 02:48:42;;;;;;;6.28;0.85;;;;;;;;;;5283356;28;20063;-82
2023/10/30 02:51:13;;;;;;;3.35;0.50;;;;;;;;;;5282825;28;20032;-82
2023/10/30 02:53:44;;;;;;;4.63;0.50;;;;;;;;;;5283874;28;20024;-81
2023/10/30 02:56:15;;;;;;;5.63;0.80;;;;;;;;;;5283046;28;20263;-82
2023/10/30 02:58:47;;;;;;;8.52;0.55;;;;;;;;;;5283782;28;20020;-82
2023/10/30 03:01:18;;;;;;;4.10;0.47;;;;;;;;;;5283518;28;20116;-81
2023/10/30 03:03:49;;;;;;;3.38;0.38;;;;;;;;;;5282618;28;20066;-82
2023/10/30 03:06:20;;;;;;;4.07;0.50;;;;;;;;;;5282726;28;20074;-82
2023/10/30 03:08:51;;;;;;;5.45;0.90;;;;;;;;;;5284086;28;20282;-82
2023/10/30 03:11:23;;;;;;;9.93;0.70;;;;;;;;;;5282055;28;20020;-82
2023/10/30 03:13:54;;;;;;;5.25;0.40;;;;;;;;;;5283790;28;20021;-82
2023/10/30 03:16:25;;;;;;;4.43;0.50;;;;;;;;;;5283081;28;20021;-82
2023/10/30 03:18:56;;;;;;;5.97;0.60;;;;;;;;;;5283551;28;20036;-82
2023/10/30 03:21:28;;;;;;;5.70;0.43;;;;;;;;;;5282714;28;20059;-82
2023/10/30 03:23:59;;;;;;;6.28;0.40;;;;;;;;;;5282562;28;20024;-82
2023/10/30 03:26:30;;;;;;;5.95;0.50;;;;;;;;;;5283336;28;20425;-82
2023/10/30 03:29:02;;;;;;;5.70;0.50;;;;;;;;;;5283427;28;20021;-82
2023/10/30 03:31:33;;;;;;;3.58;0.50;;;;;;;;;;5281819;28;20417;-82
2023/10/30 03:34:04;;;;;;;5.35;0.50;;;;;;;;;;5282530;28;20056;-82
2023/10/30 03:36:36;;;;;;;8.10;0.75;;;;;;;;;;5282528;28;20459;-82
2023/10/30 03:39:08;;;;;;;6.07;0.60;;;;;;;;;;5282000;28;20391;-82
2023/10/30 03:41:39;;;;;;;7.95;0.60;;;;;;;;;;5282477;28;20274;-82
2023/10/30 03:44:11;;;;;;;5.00;0.60;;;;;;;;;;5283115;28;20100;-82
2023/10/30 03:46:42;;;;;;;4.15;0.40;;;;;;;;;;5282051;28;20025;-82
2023/10/30 03:49:13;;;;;;;8.68;0.80;;;;;;;;;;5282323;28;20032;-82
2023/10/30 03:51:44;;;;;;;5.45;0.63;;;;;;;;;;5283040;28;20490;-82
2023/10/30 03:54:16;;;;;;;7.23;0.50;;;;;;;;;;5281689;28;20150;-82
2023/10/30 03:56:47;;;;;;;5.55;0.68;;;;;;;;;;5282224;28;20274;-82
2023/10/30 03:59:18;;;;;;;7.47;0.60;;;;;;;;;;5281555;28;20066;-82
2023/10/30 04:01:50;;;;;;;6.28;0.50;;;;;;;;;;5282289;28;20067;-82
2023/10/30 04:04:21;;;;;;;4.90;0.43;;;;;;;;;;5281857;28;20398;-82
2023/10/30 04:06:52;;;;;;;5.40;0.40;;;;;;;;;;5281820;28;20376;-82
2023/10/30 04:09:24;;;;;;;8.20;1.13;;;;;;;;;;5282252;28;20021;-83
2023/10/30 04:11:55;;;;;;;4.40;0.47;;;;;;;;;;5284799;28;20008;-82
2023/10/30 04:14:28;;;;;;;6.22;0.50;;;;;;;;;;5288083;28;20009;-83
2023/10/30 04:17:02;;;;;;;8.40;0.45;;;;;;;;;;5283752;28;20056;-83
2023/10/30 04:19:33;;;;;;;5.88;0.70;;;;;;;;;;5282589;28;20573;-82
2023/10/30 04:22:04;;;;;;;8.57;1.35;;;;;;;;;;5281699;28;20111;-82
2023/10/30 04:24:36;;;;;;;6.95;0.60;;;;;;;;;;5282674;28;20019;-82
2023/10/30 04:27:07;;;;;;;10.82;0.90;;;;;;;;;;5282017;28;20016;-82
2023/10/30 04:29:38;;;;;;;3.10;0.47;;;;;;;;;;5282963;28;20025;-82
2023/10/30 04:32:10;;;;;;;3.47;0.52;;;;;;;;;;5282485;28;20111;-82
2023/10/30 04:34:41;;;;;;;7.32;0.50;;;;;;;;;;5282436;28;20013;-82
2023/10/30 04:37:13;;;;;;;7.37;0.53;;;;;;;;;;5282587;28;20059;-82
2023/10/30 04:39:45;;;;;;;5.45;0.40;;;;;;;;;;5283358;28;20635;-83
2023/10/30 04:42:16;;;;;;;5.50;0.88;;;;;;;;;;5281713;28;20028;-82
2023/10/30 04:44:47;;;;;;;6.32;0.60;;;;;;;;;;5282295;28;20059;-82
2023/10/30 04:47:20;;;;;;;5.45;0.70;;;;;;;;;;5282673;28;20510;-82
2023/10/30 04:49:51;;;;;;;4.78;0.50;;;;;;;;;;5281465;28;20463;-82
2023/10/30 04:52:25;;;;;;;9.20;0.57;;;;;;;;;;5282004;28;20090;-82
2023/10/30 04:54:56;;;;;;;4.20;0.60;;;;;;;;;;5282364;28;20016;-82
2023/10/30 04:57:27;;;;;;;6.30;0.50;;;;;;;;;;5281292;28;20029;-82
2023/10/30 04:59:59;;;;;;;3.60;0.50;;;;;;;;;;5282253;28;20073;-82
2023/10/30 05:02:31;;;;;;;3.47;0.40;;;;;;;;;;5281323;28;20060;-82
2023/10/30 05:05:02;;;;;;;5.85;0.50;;;;;;;;;;5282159;28;20016;-82
2023/10/30 05:07:33;;;;;;;4.97;0.50;;;;;;;;;;5281385;28;20051;-82
2023/10/30 05:10:04;;;;;;;4.80;0.65;;;;;;;;;;5281531;28;20032;-82
2023/10/30 05:12:35;;;;;;;4.20;0.50;;;;;;;;;;5285443;28;20052;-82
2023/10/30 05:15:08;;;;;;;6.05;0.60;;;;;;;;;;5286483;28;20356;-82
2023/10/30 05:17:39;;;;;;;5.78;0.60;;;;;;;;;;5285327;28;20263;-82
2023/10/30 05:20:12;;;;;;;7.57;0.95;;;;;;;;;;5285801;28;20005;-83
2023/10/30 05:22:43;;;;;;;4.45;0.43;;;;;;;;;;5285373;28;20037;-82
2023/10/30 05:25:15;;;;;;;4.85;0.45;;;;;;;;;;5284724;28;20023;-82
2023/10/30 05:27:46;;;;;;;6.72;0.80;;;;;;;;;;5285394;28;20078;-83
2023/10/30 05:30:17;;;;;;;2.47;0.50;;;;;;;;;;5285262;28;20063;-82
2023/10/30 05:32:48;;;;;;;5.03;0.43;;;;;;;;;;5284435;28;20451;-83
2023/10/30 05:35:20;;;;;;;3.95;0.30;;;;;;;;;;5285185;28;20028;-83
2023/10/30 05:37:51;;;;;;;6.55;0.50;;;;;;;;;;5284835;28;20398;-83
2023/10/30 05:40:22;;;;;;;3.13;0.57;;;;;;;;;;5285028;28;20265;-82
2023/10/30 05:42:53;;;;;;;5.30;0.60;;;;;;;;;;5285538;28;20028;-82
2023/10/30 05:45:25;;;;;;;5.05;0.60;;;;;;;;;;5284100;28;20031;-82
2023/10/30 05:47:56;;;;;;;4.63;0.73;;;;;;;;;;5284991;28;20048;-82
2023/10/30 05:50:27;;;;;;;6.65;0.80;;;;;;;;;;5284491;28;20368;-82
2023/10/30 05:52:58;;;;;;;6.78;0.43;;;;;;;;;;5284805;28;20467;-82
2023/10/30 05:55:30;;;;;;;4.57;0.30;;;;;;;;;;5288383;28;20032;-82
2023/10/30 05:58:01;;;;;;;5.20;0.70;;;;;;;;;;5290417;28;20020;-82
2023/10/30 06:00:32;;;;;;;4.13;0.32;;;;;;;;;;5283929;28;20029;-82
2023/10/30 06:03:03;;;;;;;3.78;0.40;;;;;;;;;;5284649;28;20387;-82
2023/10/30 06:05:34;;;;;;;5.65;0.70;;;;;;;;;;5284623;28;20074;-82
2023/10/30 06:08:05;;;;;;;8.40;0.60;;;;;;;;;;5283651;28;20274;-82
2023/10/30 06:10:38;;;;;;;5.18;0.50;;;;;;;;;;5284213;28;20029;-83
2023/10/30 06:13:09;;;;;;;8.43;0.70;;;;;;;;;;5283618;28;20108;-82
2023/10/30 06:15:41;;;;;;;6.43;0.60;;;;;;;;;;5284512;28;20088;-82
2023/10/30 06:18:12;;;;;;;6.00;0.80;;;;;;;;;;5284512;28;20046;-82
2023/10/30 06:20:46;;;;;;;5.78;0.60;;;;;;;;;;5283744;28;20050;-82
2023/10/30 06:23:17;;;;;;;5.60;0.60;;;;;;;;;;5284323;28;20028;-82
2023/10/30 06:25:48;;;;;;;4.90;0.75;;;;;;;;;;5284067;28;20020;-82
2023/10/30 06:28:20;;;;;;;5.05;0.70;;;;;;;;;;5283232;28;20491;-82
2023/10/30 06:30:51;;;;;;;5.18;0.60;;;;;;;;;;5284650;28;20047;-83
2023/10/30 06:33:22;;;;;;;4.75;0.47;;;;;;;;;;5283961;28;20029;-82
2023/10/30 06:35:58;;;;;;;7.93;0.60;;;;;;;;;;5283582;28;20027;-82
2023/10/30 06:38:29;;;;;;;7.60;0.93;;;;;;;;;;5283972;28;20070;-83
2023/10/30 06:41:01;;;;;;;5.05;0.63;;;;;;;;;;5284617;28;20024;-83
2023/10/30 06:43:32;;;;;;;5.05;0.98;;;;;;;;;;5285987;28;20038;-82
2023/10/30 06:46:04;;;;;;;5.60;0.47;;;;;;;;;;5286917;28;20044;-82
2023/10/30 06:48:35;;;;;;;4.90;0.40;;;;;;;;;;5285198;28;20045;-83
2023/10/30 06:51:06;;;;;;;7.38;0.80;;;;;;;;;;5286566;28;20039;-82
2023/10/30 06:53:39;;;;;;;5.15;0.40;;;;;;;;;;5285048;28;20077;-83
2023/10/30 06:56:10;;;;;;;8.63;0.82;;;;;;;;;;5283848;28;20116;-81
2023/10/30 06:58:41;;;;;;;7.03;0.55;;;;;;;;;;5283991;28;20074;-82
2023/10/30 07:01:12;;;;;;;6.20;1.10;;;;;;;;;;5284076;28;20029;-82
2023/10/30 07:03:43;;;;;;;6.40;0.88;;;;;;;;;;5283903;28;20016;-82
2023/10/30 07:06:15;;;;;;;6.10;1.25;;;;;;;;;;5284864;28;20067;-82
2023/10/30 07:08:46;;;;;;;8.93;0.52;;;;;;;;;;5291841;28;20279;-82
2023/10/30 07:11:17;;;;;;;5.90;0.75;;;;;;;;;;5288354;28;20016;-82
2023/10/30 07:13:48;;;;;;;6.65;0.55;;;;;;;;;;5283575;28;20020;-82
2023/10/30 07:16:19;;;;;;;6.30;0.80;;;;;;;;;;5282579;28;20435;-82
2023/10/30 07:18:50;;;;;;;11.82;0.98;;;;;;;;;;5284890;28;20040;-82
2023/10/30 07:21:22;;;;;;;6.55;0.43;;;;;;;;;;5283245;28;20039;-81
2023/10/30 07:23:53;;;;;;;6.03;0.43;;;;;;;;;;5282950;28;20118;-83
2023/10/30 07:26:25;;;;;;;6.10;0.50;;;;;;;;;;5283016;28;20052;-82
2023/10/30 07:28:56;;;;;;;8.20;0.75;;;;;;;;;;5283111;28;20410;-83
2023/10/30 07:31:27;;;;;;;6.65;0.50;;;;;;;;;;5282039;28;20034;-83
2023/10/30 07:33:58;;;;;;;12.05;0.95;;;;;;;;;;5283039;28;20020;-83
2023/10/30 07:36:30;;;;;;;6.75;0.50;;;;;;;;;;5282757;28;20075;-82
2023/10/30 07:39:01;;;;;;;6.65;1.23;;;;;;;;;;5282715;28;20375;-82
2023/10/30 07:41:32;;;;;;;5.18;0.65;;;;;;;;;;5282483;28;20055;-83
2023/10/30 07:44:03;;;;;;;8.50;1.17;;;;;;;;;;5284132;28;20047;-82
2023/10/30 07:46:35;;;;;;;6.53;0.70;;;;;;;;;;5282554;28;20267;-82
2023/10/30 07:49:07;;;;;;;7.90;0.63;;;;;;;;;;5283933;28;20032;-83
2023/10/30 07:51:38;;;;;;;7.55;0.50;;;;;;;;;;5293020;28;20024;-83
2023/10/30 07:54:09;;;;;;;7.40;0.80;;;;;;;;;;5284606;28;20489;-83
2023/10/30 07:56:41;;;;;;;4.38;0.40;;;;;;;;;;5282679;28;20757;-82
2023/10/30 07:59:12;;;;;;;6.55;0.60;;;;;;;;;;5281582;28;20039;-83
2023/10/30 08:01:45;;;;;;;4.75;0.50;;;;;;;;;;5282036;28;20032;-82
2023/10/30 08:04:16;;;;;;;5.82;0.50;;;;;;;;;;5282278;28;20588;-82
2023/10/30 08:06:48;;;;;;;9.90;0.90;;;;;;;;;;5281718;28;20531;-83
2023/10/30 08:09:19;;;;;;;7.00;0.60;;;;;;;;;;5282146;28;20016;-83
2023/10/30 08:11:50;;;;;;;5.75;0.57;;;;;;;;;;5282728;28;20081;-81
2023/10/30 08:14:22;;;;;;;8.60;0.80;;;;;;;;;;5281638;28;20031;-81
2023/10/30 08:16:53;;;;;;;6.72;0.50;;;;;;;;;;5282668;28;20032;-81
2023/10/30 08:19:24;;;;;;;4.18;0.45;;;;;;;;;;5281426;28;20387;-79
2023/10/30 08:21:56;;;;;;;5.25;0.47;;;;;;;;;;5282434;28;20032;-79
2023/10/30 08:24:27;;;;;;;8.32;0.70;;;;;;;;;;5282256;28;20021;-81
2023/10/30 08:26:58;;;;;;;6.50;0.60;;;;;;;;;;5281364;28;20180;-79
2023/10/30 08:29:29;;;;;;;8.25;0.40;;;;;;;;;;5281812;28;20016;-79
2023/10/30 08:32:00;;;;;;;5.28;0.50;;;;;;;;;;5282173;28;20103;-77
2023/10/30 08:34:32;;;;;;;4.53;0.60;;;;;;;;;;5280743;28;20016;-79
2023/10/30 08:37:03;;;;;;;4.85;0.50;;;;;;;;;;5281670;28;20017;-80
2023/10/30 08:39:34;;;;;;;4.00;0.50;;;;;;;;;;5281758;28;20519;-81
2023/10/30 08:42:05;;;;;;;5.78;0.88;;;;;;;;;;5278651;28;20033;-80
2023/10/30 08:44:37;;;;;;;4.53;0.40;;;;;;;;;;5241663;28;20031;-80
2023/10/30 08:47:08;;;;;;;3.25;0.60;;;;;;;;;;5245777;28;20048;-81
2023/10/30 08:49:39;;;;;;;6.13;0.68;;;;;;;;;;5244072;28;20376;-80
2023/10/30 08:52:10;;;;;;;9.30;0.75;;;;;;;;;;5246854;28;20066;-81
2023/10/30 08:54:42;;;;;;;3.17;0.50;;;;;;;;;;5245123;28;20005;-81
2023/10/30 08:57:17;;;;;;;5.78;0.50;;;;;;;;;;5245558;28;20075;-82
2023/10/30 08:59:48;;;;;;;4.72;0.43;;;;;;;;;;5245130;28;20013;-83
2023/10/30 09:02:19;;;;;;;6.03;0.40;;;;;;;;;;5242781;28;20040;-82
2023/10/30 09:04:50;;;;;;;4.55;0.70;;;;;;;;;;5243867;28;20051;-82
2023/10/30 09:07:21;;;;;;;4.65;1.10;;;;;;;;;;5244334;28;20012;-79
2023/10/30 09:09:53;;;;;;;3.95;0.57;;;;;;;;;;5243086;28;20020;-79
2023/10/30 09:12:24;;;;;;;4.77;0.50;;;;;;;;;;5242327;28;20028;-78
2023/10/30 09:14:55;;;;;;;6.10;0.47;;;;;;;;;;5244381;28;21382;-81
2023/10/30 09:17:26;;;;;;;2.50;0.40;;;;;;;;;;5243495;28;20024;-78
2023/10/30 09:19:57;;;;;;;4.43;0.43;;;;;;;;;;5243431;28;20012;-78
2023/10/30 09:22:29;;;;;;;4.78;0.50;;;;;;;;;;5243193;28;20360;-79
2023/10/30 09:25:00;;;;;;;3.83;0.57;;;;;;;;;;5244290;28;20041;-79
2023/10/30 09:27:31;;;;;;;3.55;0.55;;;;;;;;;;5245511;28;20905;-79
2023/10/30 09:30:03;;;;;;;5.93;0.73;;;;;;;;;;5245161;28;20463;-80
2023/10/30 09:32:34;;;;;;;5.00;0.60;;;;;;;;;;5259608;28;20027;-78
2023/10/30 09:35:05;;;;;;;3.10;0.40;;;;;;;;;;5284909;28;20046;-78
2023/10/30 09:37:37;;;;;;;7.43;0.47;;;;;;;;;;5284230;28;20055;-79
2023/10/30 09:40:08;;;;;;;3.63;0.30;;;;;;;;;;5284723;28;20091;-79
2023/10/30 09:42:50;;;;;;;5.32;0.30;;;;;;;;;;5283929;28;20025;-81
2023/10/30 09:45:22;;;;;;;9.60;0.68;;;;;;;;;;5284283;28;20031;-79
2023/10/30 09:47:54;;;;;;;5.03;0.50;;;;;;;;;;5285671;28;20499;-78
2023/10/30 09:50:25;;;;;;;3.13;0.40;;;;;;;;;;5284484;28;20021;-79
2023/10/30 09:52:58;;;;;;;5.93;0.60;;;;;;;;;;5284430;28;20085;-78
2023/10/30 09:55:29;;;;;;;2.53;0.30;;;;;;;;;;5284008;28;20025;-79
2023/10/30 09:58:00;;;;;;;5.03;0.40;;;;;;;;;;5284238;28;20066;-79
2023/10/30 10:00:32;;;;;;;3.40;0.40;;;;;;;;;;5284039;28;20016;-78
2023/10/30 10:03:04;;;;;;;6.35;0.43;;;;;;;;;;5284485;28;20111;-77
2023/10/30 10:05:35;;;;;;;5.32;0.90;;;;;;;;;;5284659;28;20066;-80
2023/10/30 10:08:07;;;;;;;6.10;0.60;;;;;;;;;;5285194;28;20017;-79
2023/10/30 10:10:57;;;;;;;3.53;0.40;;;;;;;;;;5284590;28;20168;-79
2023/10/30 10:13:29;;;;;;;5.07;0.40;;;;;;;;;;5283133;28;20021;-78
2023/10/30 10:16:01;;;;;;;3.25;0.40;;;;;;;;;;5284694;28;20387;-77
2023/10/30 10:18:33;;;;;;;5.28;0.32;;;;;;;;;;5283964;28;20032;-78
2023/10/30 10:21:08;;;;;;;5.18;0.40;;;;;;;;;;5282887;28;20048;-77
2023/10/30 10:23:39;;;;;;;2.95;0.30;;;;;;;;;;5283994;28;20020;-78
2023/10/30 10:26:14;;;;;;;4.32;0.40;;;;;;;;;;5283363;28;20082;-78
2023/10/30 10:28:48;;;;;;;3.67;0.40;;;;;;;;;;5283626;28;20024;-79
2023/10/30 10:31:19;;;;;;;3.10;0.30;;;;;;;;;;5283602;28;20016;-77
2023/10/30 10:33:53;;;;;;;3.23;0.30;;;;;;;;;;5283657;28;20012;-77
2023/10/30 10:36:29;;;;;;;4.35;0.30;;;;;;;;;;5284022;28;20358;-78
2023/10/30 10:39:01;;;;;;;7.13;0.95;;;;;;;;;;5284740;28;20039;-78
2023/10/30 10:41:32;;;;;;;5.20;0.40;;;;;;;;;;5282718;28;20037;-79
2023/10/30 10:44:05;;;;;;;3.00;0.60;;;;;;;;;;5284624;28;20379;-79
2023/10/30 10:46:36;;;;;;;5.22;0.50;;;;;;;;;;5284059;28;20470;-78
2023/10/30 10:49:07;;;;;;;3.78;0.40;;;;;;;;;;5283108;28;20029;-80
2023/10/30 10:51:40;;;;;;;3.45;0.45;;;;;;;;;;5284952;28;20024;-79
2023/10/30 10:54:21;;;;;;;4.15;0.40;;;;;;;;;;5283921;28;20024;-81
2023/10/30 10:56:53;;;;;;;4.28;0.30;;;;;;;;;;5284611;28;20116;-80
2023/10/30 10:59:26;;;;;;;2.38;0.40;;;;;;;;;;5283675;28;20113;-80
2023/10/30 11:01:58;;;;;;;4.00;0.50;;;;;;;;;;5284672;28;20036;-80
2023/10/30 11:04:30;;;;;;;2.90;0.30;;;;;;;;;;5283702;28;20016;-79
2023/10/30 11:07:05;;;;;;;3.25;0.40;;;;;;;;;;5284131;28;20028;-80
2023/10/30 11:09:41;;;;;;;2.22;0.30;;;;;;;;;;5282600;28;20020;-78
2023/10/30 11:12:24;;;;;;;2.22;0.30;;;;;;;;;;5284840;28;20020;-79
2023/10/30 11:15:03;;;;;;;2.50;0.30;;;;;;;;;;5284710;28;20379;-80
2023/10/30 11:17:35;;;;;;;2.05;0.30;;;;;;;;;;5282913;28;20013;-80
2023/10/30 11:20:10;;;;;;;5.57;0.30;;;;;;;;;;5284292;28;20028;-79
2023/10/30 11:22:42;;;;;;;2.40;0.43;;;;;;;;;;5283250;28;20036;-79
2023/10/30 11:25:33;;;;;;;3.00;0.28;;;;;;;;;;5285488;28;20356;-78
2023/10/30 11:28:04;;;;;;;2.20;0.20;;;;;;;;;;5275983;28;20444;-79
2023/10/30 11:30:42;;;;;;;2.72;0.20;;;;;;;;;;5282391;28;20052;-77
2023/10/30 11:33:20;;;;;;;2.60;0.50;;;;;;;;;;5280710;28;20048;-76
2023/10/30 11:36:10;;;;;;;1.98;0.20;;;;;;;;;;5281931;28;20016;-77
2023/10/30 11:39:06;;;;;;;2.20;0.25;;;;;;;;;;5279329;28;20025;-77
2023/10/30 11:41:41;;;;;;;3.28;0.60;;;;;;;;;;5281186;28;20040;-77
2023/10/30 11:44:12;;;;;;;1.92;0.30;;;;;;;;;;5280506;28;20017;-78
2023/10/30 11:46:46;;;;;;;2.00;0.40;;;;;;;;;;5282265;28;20016;-79
2023/10/30 11:49:19;;;;;;;1.98;0.20;;;;;;;;;;5282373;28;20078;-78
2023/10/30 11:51:51;;;;;;;2.55;0.28;;;;;;;;;;5281980;28;20028;-77
2023/10/30 11:54:29;;;;;;;2.15;0.30;;;;;;;;;;5281938;28;20319;-75
2023/10/30 11:57:00;;;;;;;2.47;0.20;;;;;;;;;;5282510;28;20111;-74
2023/10/30 11:59:32;;;;;;;2.05;0.20;;;;;;;;;;5280872;28;20095;-73
2023/10/30 12:02:04;;;;;;;1.50;0.20;;;;;;;;;;5282111;28;20291;-75
2023/10/30 12:04:35;;;;;;;2.38;0.20;;;;;;;;;;5281273;28;20051;-76
2023/10/30 12:07:06;;;;;;;2.38;0.20;;;;;;;;;;5282005;28;20052;-76
2023/10/30 12:09:38;;;;;;;2.53;0.30;;;;;;;;;;5281838;28;20099;-75
2023/10/30 12:12:09;;;;;;;0.85;0.20;;;;;;;;;;5281066;28;20262;-76
2023/10/30 12:14:40;;;;;;;2.95;0.28;;;;;;;;;;5281845;28;20028;-75
2023/10/30 12:17:11;;;;;;;3.17;0.30;;;;;;;;;;5281954;28;20471;-76
2023/10/30 12:19:43;;;;;;;1.70;0.20;;;;;;;;;;5280902;28;20070;-75
2023/10/30 12:22:14;;;;;;;2.33;0.20;;;;;;;;;;5281663;28;20051;-75
2023/10/30 12:24:46;;;;;;;3.42;0.38;;;;;;;;;;5281705;28;20025;-75
2023/10/30 12:27:18;;;;;;;1.58;0.40;;;;;;;;;;5281343;28;20337;-76
2023/10/30 12:29:55;;;;;;;3.15;0.20;;;;;;;;;;5281829;28;20070;-75
2023/10/30 12:32:29;;;;;;;2.95;0.20;;;;;;;;;;5281369;28;20021;-75
2023/10/30 12:35:10;;;;;;;3.28;0.40;;;;;;;;;;5281520;28;20016;-75
2023/10/30 12:37:41;;;;;;;1.63;0.20;;;;;;;;;;5281818;28;20463;-77
2023/10/30 12:40:13;;;;;;;2.33;0.32;;;;;;;;;;5280952;28;20027;-76
2023/10/30 12:42:47;;;;;;;2.92;0.40;;;;;;;;;;5281647;28;20025;-72
2023/10/30 12:45:20;;;;;;;2.13;0.30;;;;;;;;;;5281440;28;20073;-77
2023/10/30 12:47:51;;;;;;;1.80;0.35;;;;;;;;;;5280925;28;20127;-78
2023/10/30 12:50:23;;;;;;;1.77;0.30;;;;;;;;;;5281407;28;20562;-77
2023/10/30 12:52:54;;;;;;;0.93;0.20;;;;;;;;;;5282107;28;20012;-79
2023/10/30 12:55:25;;;;;;;2.17;0.20;;;;;;;;;;5280422;28;20027;-77
2023/10/30 12:57:56;;;;;;;0.97;0.20;;;;;;;;;;5282133;28;20258;-78
2023/10/30 13:00:27;;;;;;;1.33;0.10;;;;;;;;;;5284573;28;20678;-77
2023/10/30 13:02:58;;;;;;;2.97;0.20;;;;;;;;;;5280949;28;20298;-77
2023/10/30 13:05:30;;;;;;;0.68;0.10;;;;;;;;;;5281096;28;20467;-76
2023/10/30 13:08:01;;;;;;;1.37;0.10;;;;;;;;;;5280908;28;20025;-78
2023/10/30 13:10:32;;;;;;;3.87;0.20;;;;;;;;;;5281073;28;20349;-77
2023/10/30 13:13:03;;;;;;;0.35;0.10;;;;;;;;;;5281365;28;20341;-76
2023/10/30 13:15:34;;;;;;;1.17;0.20;;;;;;;;;;5280623;28;20025;-76
2023/10/30 13:18:05;;;;;;;1.00;0.10;;;;;;;;;;5281352;28;20332;-77
2023/10/30 13:20:37;;;;;;;7.67;0.40;;;;;;;;;;5281149;28;20342;-77
2023/10/30 13:23:09;;;;;;;1.23;0.10;;;;;;;;;;5280189;28;20344;-77
2023/10/30 13:25:40;;;;;;;0.60;0.10;;;;;;;;;;5281345;28;20487;-76
2023/10/30 13:28:11;;;;;;;2.10;0.20;;;;;;;;;;5281218;28;20325;-76
2023/10/30 13:30:43;;;;;;;0.68;0.00;;;;;;;;;;5280444;28;20017;-78
2023/10/30 13:33:14;;;;;;;1.48;0.10;;;;;;;;;;5285081;28;20055;-77
2023/10/30 13:35:46;;;;;;;23.63;2.40;;;;;;;;;;5284710;28;20052;-77
2023/10/30 13:38:17;;;;;;;4.38;0.30;;;;;;;;;;5284678;28;20455;-76
2023/10/30 13:40:51;;;;;;;0.52;0.10;;;;;;;;;;5284833;28;20025;-76
2023/10/30 13:43:22;;;;;;;1.65;0.10;;;;;;;;;;5283800;28;20040;-77
2023/10/30 13:45:53;;;;;;;2.17;0.10;;;;;;;;;;5285053;28;20012;-76
2023/10/30 13:48:25;;;;;;;3.20;0.22;;;;;;;;;;5284559;28;20777;-76
2023/10/30 13:50:58;;;;;;;0.73;0.10;;;;;;;;;;5284385;28;20024;-76
2023/10/30 13:53:29;;;;;;;1.08;0.17;;;;;;;;;;5284380;28;20017;-77
2023/10/30 13:56:00;;;;;;;1.10;0.20;;;;;;;;;;5285024;28;20027;-77
2023/10/30 13:58:31;;;;;;;7.78;0.75;;;;;;;;;;5283533;28;20130;-77
2023/10/30 14:01:03;;;;;;;6.18;0.40;;;;;;;;;;5284479;28;20016;-76
2023/10/30 14:03:34;;;;;;;12.30;0.47;;;;;;;;;;5284655;28;20408;-76
2023/10/30 14:06:05;;;;;;;2.72;0.35;;;;;;;;;;5283543;28;20012;-76
2023/10/30 14:08:36;;;;;;;4.60;0.30;;;;;;;;;;5284230;28;20368;-76
2023/10/30 14:11:08;;;;;;;1.85;0.20;;;;;;;;;;5283328;28;20081;-76
2023/10/30 14:13:39;;;;;;;2.58;0.50;;;;;;;;;;5284267;28;20094;-76
2023/10/30 14:16:10;;;;;;;0.95;0.20;;;;;;;;;;5284331;28;20438;-76
2023/10/30 14:18:41;;;;;;;2.08;0.38;;;;;;;;;;5283206;28;20282;-76
2023/10/30 14:21:13;;;;;;;1.10;0.20;;;;;;;;;;5283963;28;20477;-77
2023/10/30 14:23:44;;;;;;;1.73;0.20;;;;;;;;;;5284350;28;20625;-76
2023/10/30 14:26:15;;;;;;;2.65;0.30;;;;;;;;;;5283433;28;20009;-76
2023/10/30 14:28:49;;;;;;;0.90;0.22;;;;;;;;;;5284020;28;20099;-76
2023/10/30 14:31:20;;;;;;;1.80;0.30;;;;;;;;;;5283715;28;20069;-77
2023/10/30 14:33:51;;;;;;;1.10;0.30;;;;;;;;;;5283495;28;20020;-77
2023/10/30 14:36:22;;;;;;;1.15;0.30;;;;;;;;;;5283383;28;20266;-77
2023/10/30 14:38:54;;;;;;;1.58;0.20;;;;;;;;;;5284027;28;20020;-76
2023/10/30 14:41:26;;;;;;;1.60;0.20;;;;;;;;;;5282671;28;20620;-76
2023/10/30 14:43:57;;;;;;;1.17;0.28;;;;;;;;;;5284031;28;20069;-76
2023/10/30 14:46:29;;;;;;;1.02;0.20;;;;;;;;;;5282495;28;20020;-76
2023/10/30 14:49:00;;;;;;;2.70;0.30;;;;;;;;;;5283576;28;20053;-76
2023/10/30 14:51:31;;;;;;;1.83;0.20;;;;;;;;;;5283403;28;20451;-76
2023/10/30 14:54:03;;;;;;;1.35;0.20;;;;;;;;;;5282922;28;20038;-76
2023/10/30 14:56:34;;;;;;;1.60;0.28;;;;;;;;;;5283368;28;20017;-76
2023/10/30 14:59:06;;;;;;;3.55;0.30;;;;;;;;;;5283205;28;20031;-77
2023/10/30 15:01:37;;;;;;;1.48;0.28;;;;;;;;;;5282572;28;20391;-76
2023/10/30 15:04:08;;;;;;;2.90;0.40;;;;;;;;;;5283169;28;20017;-76
2023/10/30 15:06:39;;;;;;;2.10;0.33;;;;;;;;;;5283278;28;20103;-76
2023/10/30 15:09:13;;;;;;;4.80;0.37;;;;;;;;;;5282221;28;20262;-76
2023/10/30 15:11:44;;;;;;;3.65;0.30;;;;;;;;;;5283470;28;20664;-76